Aeroporto :
LOGIN :

Iscrizione | Disclaimer

   EN    FR    IT 

 










Sommario :    VFR   VFR Marginale   IFR   IFR Intensivo   IFR Molto Intensivo
Visibilità : 
Base nubi : 
>= 8 km
>= 3000ft
5 / 8 km
1000 / 3000 ft
1500m / 5 km
500 / 1000 ft
800 / 1500m
200 / 500 ft
< 800m
< 200 ft
Simboli :   Temporali  Nebbia  Neve Forte  Precipitazioni Forti  Vento > 20 kt
SIGMETs :   Varie  Temporali  Ghiacco  Turbolenza  Onda orograficha  Ceneri Vulcaniche






- Altitudine del aeroporto : 443 ft
- Codice IATA : SQQ


EYSA - Siauliai

ULTIMO METAR :
  • 070120Z AUTO 07001KT 9999 FEW070/// BKN091/// BKN110/// 12/10 Q1010 BLU NOSIG

METARs OBSOLETI :
  • 070050Z AUTO 00000KT 9999 FEW054/// BKN096/// 12/09 Q1010 BLU NOSIG
  • 070020Z AUTO 13002KT 9999 BKN055/// BKN097/// 13/10 Q1010 BLU NOSIG
  • 062350Z AUTO 20001KT 9999 FEW045/// BKN059/// OVC099/// 14/10 Q1010 BLU NOSIG
  • 062320Z AUTO 14003KT 120V180 9999 BKN060/// OVC069/// 13/10 Q1009 BLU NOSIG
  • 062250Z AUTO 14004KT 9999 FEW049/// OVC059/// 13/10 Q1009 BLU NOSIG

TAF TAF EYSA
Valido dal 07 a 00 ore il 07 a 09 ore UTC


062300Z 0700/0709 VRB05KT 9000 NSC
TEMPO 0702/0706 SCT040CB



MetMap, La meteo Aeronautica in un colpo d'occhio ! - Copyright ORBIFLY Dicembre 2007 - Disclaimer

ORBIFLY MET'MAP TEAM :

Programmazione e sviluppo : Alexandra Zaïnal
Concezione : Baudouin d'Aumeries
Aiuto per la programmazione : Marc-Olivier Méhu
Supporto tecnico e logistico : Manuel Goepfert
Aiuto per la traduzione : Arnaldo La Scala

Contatto : metmap@orbifly.com




FONTI E CREDITI :

   NOAA